createdAt,value
2023-04-18T00:00:43.973Z,95176.00
2023-04-18T00:01:43.996Z,95178.00
2023-04-18T00:02:44.249Z,95176.00
2023-04-18T00:03:44.270Z,95174.00
2023-04-18T00:04:44.199Z,95174.00
2023-04-18T00:05:44.255Z,95176.00
2023-04-18T00:06:44.238Z,95174.00
2023-04-18T00:07:44.284Z,95174.00
2023-04-18T00:08:44.295Z,95172.00
2023-04-18T00:09:44.514Z,95170.00
2023-04-18T00:10:44.358Z,95172.00
2023-04-18T00:11:44.431Z,95170.00
2023-04-18T00:12:44.493Z,95170.00
2023-04-18T00:13:44.573Z,95170.00
2023-04-18T00:14:44.590Z,95170.00
2023-04-18T00:15:44.647Z,95168.00
2023-04-18T00:16:44.756Z,95166.00
2023-04-18T00:17:44.794Z,95168.00
2023-04-18T00:18:44.761Z,95166.00
2023-04-18T00:19:44.788Z,95166.00
2023-04-18T00:20:44.886Z,95166.00
2023-04-18T00:21:45.226Z,95162.00
2023-04-18T00:22:44.915Z,95164.00
2023-04-18T00:23:44.953Z,95164.00
2023-04-18T00:24:45.036Z,95164.00
2023-04-18T00:25:45.063Z,95162.00
2023-04-18T00:26:45.102Z,95168.00
2023-04-18T00:27:45.173Z,95164.00
2023-04-18T00:28:45.176Z,95168.00
2023-04-18T00:29:45.248Z,95164.00
2023-04-18T00:30:45.337Z,95164.00
2023-04-18T00:31:45.319Z,95166.00
2023-04-18T00:32:45.418Z,95166.00
2023-04-18T00:33:45.430Z,95166.00
2023-04-18T00:34:45.459Z,95168.00
2023-04-18T00:35:45.507Z,95166.00
2023-04-18T00:36:45.564Z,95168.00
2023-04-18T00:37:45.614Z,95166.00
2023-04-18T00:38:45.649Z,95164.00
2023-04-18T00:39:45.695Z,95166.00
2023-04-18T00:40:45.781Z,95164.00
2023-04-18T00:41:45.806Z,95164.00
2023-04-18T00:42:45.851Z,95166.00
2023-04-18T00:43:45.934Z,95168.00
2023-04-18T00:44:45.929Z,95164.00
2023-04-18T00:45:46.010Z,95164.00
2023-04-18T00:46:46.010Z,95164.00
2023-04-18T00:47:46.337Z,95162.00
2023-04-18T00:48:46.124Z,95162.00
2023-04-18T00:49:46.168Z,95160.00
2023-04-18T00:50:46.310Z,95158.00
2023-04-18T00:51:46.273Z,95156.00
2023-04-18T00:52:46.293Z,95158.00
2023-04-18T00:53:46.373Z,95160.00
2023-04-18T00:54:46.386Z,95160.00
2023-04-18T00:55:46.462Z,95158.00
2023-04-18T00:56:46.484Z,95160.00
2023-04-18T00:57:46.533Z,95156.00
2023-04-18T00:58:46.584Z,95160.00
2023-04-18T00:59:46.658Z,95158.00
2023-04-18T01:00:46.643Z,95158.00
2023-04-18T01:01:46.877Z,95158.00
2023-04-18T01:02:46.858Z,95158.00
2023-04-18T01:03:46.908Z,95158.00
2023-04-18T01:04:46.870Z,95158.00
2023-04-18T01:05:46.916Z,95156.00
2023-04-18T01:06:46.930Z,95158.00
2023-04-18T01:07:47.003Z,95156.00
2023-04-18T01:08:47.035Z,95156.00
2023-04-18T01:09:47.081Z,95158.00
2023-04-18T01:10:47.138Z,95158.00
2023-04-18T01:11:47.178Z,95158.00
2023-04-18T01:12:47.267Z,95158.00
2023-04-18T01:13:47.278Z,95160.00
2023-04-18T01:14:47.303Z,95160.00
2023-04-18T01:15:47.415Z,95156.00
2023-04-18T01:16:47.401Z,95158.00
2023-04-18T01:17:47.495Z,95156.00
2023-04-18T01:18:47.527Z,95156.00
2023-04-18T01:19:47.518Z,95155.00
2023-04-18T01:20:47.587Z,95155.00
2023-04-18T01:21:47.672Z,95153.00
2023-04-18T01:22:47.660Z,95153.00
2023-04-18T01:23:47.714Z,95151.00
2023-04-18T01:24:47.791Z,95153.00
2023-04-18T01:25:47.785Z,95151.00
2023-04-18T01:26:47.834Z,95147.00
2023-04-18T01:27:47.871Z,95151.00
2023-04-18T01:28:47.933Z,95145.00
2023-04-18T01:29:47.965Z,95145.00
2023-04-18T01:30:47.998Z,95137.00
2023-04-18T01:31:48.133Z,95137.00
2023-04-18T01:32:48.117Z,95137.00
2023-04-18T01:33:48.136Z,95135.00
2023-04-18T01:34:48.186Z,95137.00
2023-04-18T01:35:48.243Z,95137.00
2023-04-18T01:36:48.267Z,95137.00
2023-04-18T01:37:48.281Z,95135.00
2023-04-18T01:38:48.321Z,95133.00
2023-04-18T01:39:48.392Z,95133.00
2023-04-18T01:40:48.433Z,95133.00
2023-04-18T01:41:48.490Z,95133.00
2023-04-18T01:42:48.543Z,95133.00
2023-04-18T01:43:48.576Z,95133.00
2023-04-18T01:44:48.580Z,95135.00
2023-04-18T01:45:48.657Z,95133.00
2023-04-18T01:46:48.762Z,95135.00
2023-04-18T01:47:48.821Z,95133.00
2023-04-18T01:48:48.790Z,95133.00
2023-04-18T01:49:48.828Z,95135.00
2023-04-18T01:50:48.861Z,95135.00
2023-04-18T01:51:48.911Z,95133.00
2023-04-18T01:52:48.928Z,95133.00
2023-04-18T01:53:48.977Z,95133.00
2023-04-18T01:54:49.027Z,95133.00
2023-04-18T01:55:49.098Z,95135.00
2023-04-18T01:56:49.106Z,95137.00
2023-04-18T01:57:49.164Z,95145.00
2023-04-18T01:58:49.189Z,95135.00
2023-04-18T01:59:49.220Z,95137.00
2023-04-18T02:00:49.284Z,95145.00
2023-04-18T02:01:49.320Z,95145.00
2023-04-18T02:02:49.493Z,95137.00
2023-04-18T02:03:49.474Z,95145.00
2023-04-18T02:04:49.471Z,95137.00
2023-04-18T02:05:49.471Z,95137.00
2023-04-18T02:06:49.525Z,95137.00
2023-04-18T02:07:49.583Z,95135.00
2023-04-18T02:08:49.600Z,95135.00
2023-04-18T02:09:49.638Z,95135.00
2023-04-18T02:10:49.654Z,95135.00
2023-04-18T02:11:49.722Z,95147.00
2023-04-18T02:12:49.769Z,95147.00
2023-04-18T02:13:49.782Z,95145.00
2023-04-18T02:14:49.818Z,95145.00
2023-04-18T02:15:49.854Z,95137.00
2023-04-18T02:16:49.951Z,95135.00
2023-04-18T02:17:50.002Z,95133.00
2023-04-18T02:18:49.973Z,95137.00
2023-04-18T02:19:49.958Z,95137.00
2023-04-18T02:20:49.982Z,95137.00
2023-04-18T02:21:50.037Z,95135.00
2023-04-18T02:22:50.063Z,95137.00
2023-04-18T02:23:50.047Z,95137.00
2023-04-18T02:24:50.070Z,95137.00
2023-04-18T02:25:50.085Z,95135.00
2023-04-18T02:26:50.105Z,95137.00
2023-04-18T02:27:50.099Z,95137.00
2023-04-18T02:28:50.080Z,95135.00
2023-04-18T02:29:50.104Z,95137.00
2023-04-18T02:30:50.129Z,95145.00
2023-04-18T02:31:50.178Z,95137.00
2023-04-18T02:32:50.161Z,95149.00
2023-04-18T02:33:50.142Z,95149.00
2023-04-18T02:34:50.123Z,95149.00
2023-04-18T02:35:50.130Z,95147.00
2023-04-18T02:36:50.122Z,95149.00
2023-04-18T02:37:50.148Z,95147.00
2023-04-18T02:38:50.142Z,95147.00
2023-04-18T02:39:50.154Z,95147.00
2023-04-18T02:40:50.215Z,95145.00
2023-04-18T02:41:50.202Z,95147.00
2023-04-18T02:42:50.293Z,95145.00
2023-04-18T02:43:50.301Z,95145.00
2023-04-18T02:44:50.308Z,95149.00
2023-04-18T02:45:50.365Z,95147.00
2023-04-18T02:46:50.400Z,95151.00
2023-04-18T02:47:55.163Z,95147.00
2023-04-18T02:48:51.416Z,95149.00
2023-04-18T02:49:50.426Z,95149.00
2023-04-18T02:50:50.390Z,95147.00
2023-04-18T02:51:50.401Z,95147.00
2023-04-18T02:52:50.420Z,95145.00
2023-04-18T02:53:50.390Z,95145.00
2023-04-18T02:54:50.414Z,95135.00
2023-04-18T02:55:50.364Z,95137.00
2023-04-18T02:56:50.378Z,95133.00
2023-04-18T02:57:50.443Z,95135.00
2023-04-18T02:58:50.468Z,95131.00
2023-04-18T02:59:50.475Z,95131.00
2023-04-18T03:00:51.322Z,95129.00
2023-04-18T03:01:50.631Z,95131.00
2023-04-18T03:02:50.762Z,95129.00
2023-04-18T03:03:50.708Z,95133.00
2023-04-18T03:04:50.920Z,95133.00
2023-04-18T03:05:50.796Z,95131.00
2023-04-18T03:06:50.869Z,95133.00
2023-04-18T03:07:50.912Z,95133.00
2023-04-18T03:08:50.976Z,95133.00
2023-04-18T03:09:51.021Z,95135.00
2023-04-18T03:10:51.131Z,95133.00
2023-04-18T03:11:51.168Z,95131.00
2023-04-18T03:12:51.225Z,95129.00
2023-04-18T03:13:51.337Z,95131.00
2023-04-18T03:14:52.345Z,95131.00
2023-04-18T03:15:51.481Z,95129.00
2023-04-18T03:16:53.855Z,95131.00
2023-04-18T03:17:51.500Z,95129.00
2023-04-18T03:18:51.441Z,95127.00
2023-04-18T03:19:51.442Z,95127.00
2023-04-18T03:20:51.463Z,95131.00
2023-04-18T03:21:51.439Z,95129.00
2023-04-18T03:22:51.436Z,95129.00
2023-04-18T03:23:51.416Z,95129.00
2023-04-18T03:24:51.440Z,95129.00
2023-04-18T03:25:51.387Z,95129.00
2023-04-18T03:26:51.385Z,95123.00
2023-04-18T03:27:51.377Z,95125.00
2023-04-18T03:28:51.361Z,95125.00
2023-04-18T03:29:51.367Z,95123.00
2023-04-18T03:30:51.388Z,95125.00
2023-04-18T03:31:51.477Z,95125.00
2023-04-18T03:32:51.439Z,95125.00
2023-04-18T03:33:51.323Z,95125.00
2023-04-18T03:34:51.354Z,95127.00
2023-04-18T03:35:51.296Z,95129.00
2023-04-18T03:36:51.302Z,95127.00
2023-04-18T03:37:51.319Z,95125.00
2023-04-18T03:38:51.291Z,95129.00
2023-04-18T03:39:51.292Z,95127.00
2023-04-18T03:40:51.282Z,95125.00
2023-04-18T03:41:51.296Z,95127.00
2023-04-18T03:42:51.350Z,95133.00
2023-04-18T03:43:51.400Z,95127.00
2023-04-18T03:44:51.416Z,95129.00
2023-04-18T03:45:51.533Z,95129.00
2023-04-18T03:46:51.582Z,95127.00
2023-04-18T03:47:51.694Z,95127.00
2023-04-18T03:48:51.700Z,95127.00
2023-04-18T03:49:51.760Z,95127.00
2023-04-18T03:50:51.813Z,95125.00
2023-04-18T03:51:51.853Z,95123.00
2023-04-18T03:52:51.934Z,95127.00
2023-04-18T03:53:51.967Z,95125.00
2023-04-18T03:54:52.052Z,95125.00
2023-04-18T03:55:52.068Z,95129.00
2023-04-18T03:56:52.094Z,95127.00
2023-04-18T03:57:52.165Z,95129.00
2023-04-18T03:58:52.213Z,95127.00
2023-04-18T03:59:52.277Z,95129.00
2023-04-18T04:00:52.354Z,95127.00
2023-04-18T04:01:52.455Z,95127.00
2023-04-18T04:02:52.553Z,95129.00
2023-04-18T04:03:52.751Z,95129.00
2023-04-18T04:04:52.556Z,95127.00
2023-04-18T04:05:52.685Z,95129.00
2023-04-18T04:06:52.636Z,95127.00
2023-04-18T04:07:52.700Z,95127.00
2023-04-18T04:08:52.754Z,95129.00
2023-04-18T04:09:52.808Z,95129.00
2023-04-18T04:10:52.806Z,95131.00
2023-04-18T04:11:52.886Z,95129.00
2023-04-18T04:12:52.904Z,95129.00
2023-04-18T04:13:52.958Z,95129.00
2023-04-18T04:14:53.054Z,95131.00
2023-04-18T04:15:53.182Z,95131.00
2023-04-18T04:16:53.180Z,95131.00
2023-04-18T04:17:53.222Z,95129.00
2023-04-18T04:18:53.231Z,95131.00
2023-04-18T04:19:53.303Z,95131.00
2023-04-18T04:20:53.317Z,95135.00
2023-04-18T04:21:53.350Z,95131.00
2023-04-18T04:22:53.424Z,95133.00
2023-04-18T04:23:53.445Z,95135.00
2023-04-18T04:24:53.554Z,95137.00
2023-04-18T04:25:53.531Z,95137.00
2023-04-18T04:26:53.596Z,95145.00
2023-04-18T04:27:53.648Z,95147.00
2023-04-18T04:28:53.673Z,95147.00
2023-04-18T04:29:53.701Z,95147.00
2023-04-18T04:30:53.748Z,95147.00
2023-04-18T04:31:53.796Z,95147.00
2023-04-18T04:32:53.890Z,95145.00
2023-04-18T04:33:53.913Z,95147.00
2023-04-18T04:34:53.922Z,95147.00
2023-04-18T04:35:53.977Z,95147.00
2023-04-18T04:36:54.011Z,95151.00
2023-04-18T04:37:54.092Z,95151.00
2023-04-18T04:38:54.144Z,95149.00
2023-04-18T04:39:54.156Z,95149.00
2023-04-18T04:40:54.208Z,95149.00
2023-04-18T04:41:54.301Z,95153.00
2023-04-18T04:42:54.309Z,95155.00
2023-04-18T04:43:54.357Z,95149.00
2023-04-18T04:44:54.421Z,95153.00
2023-04-18T04:45:54.441Z,95156.00
2023-04-18T04:46:54.529Z,95153.00
2023-04-18T04:47:54.582Z,95153.00
2023-04-18T04:48:54.550Z,95153.00
2023-04-18T04:49:54.583Z,95153.00
2023-04-18T04:50:54.647Z,95155.00
2023-04-18T04:51:54.682Z,95156.00
2023-04-18T04:52:54.706Z,95156.00
2023-04-18T04:53:54.748Z,95156.00
2023-04-18T04:54:54.802Z,95156.00
2023-04-18T04:55:54.852Z,95158.00
2023-04-18T04:56:54.894Z,95158.00
2023-04-18T04:57:55.027Z,95160.00
2023-04-18T04:58:54.965Z,95158.00
2023-04-18T04:59:55.010Z,95160.00
2023-04-18T05:00:55.233Z,95160.00
2023-04-18T05:01:55.173Z,95160.00
2023-04-18T05:02:55.358Z,95158.00
2023-04-18T05:03:55.336Z,95158.00
2023-04-18T05:04:55.278Z,95162.00
2023-04-18T05:05:55.335Z,95158.00
2023-04-18T05:06:55.352Z,95160.00
2023-04-18T05:07:55.397Z,95160.00
2023-04-18T05:08:55.446Z,95160.00
2023-04-18T05:09:55.528Z,95160.00
2023-04-18T05:10:55.567Z,95160.00
2023-04-18T05:11:55.598Z,95162.00
2023-04-18T05:12:55.653Z,95162.00
2023-04-18T05:13:55.692Z,95162.00
2023-04-18T05:14:55.759Z,95166.00
2023-04-18T05:15:55.808Z,95164.00
2023-04-18T05:16:55.912Z,95164.00
2023-04-18T05:17:55.967Z,95168.00
2023-04-18T05:18:55.978Z,95166.00
2023-04-18T05:19:56.028Z,95170.00
2023-04-18T05:20:56.070Z,95170.00
2023-04-18T05:21:56.140Z,95166.00
2023-04-18T05:22:56.237Z,95168.00
2023-04-18T05:23:56.280Z,95166.00
2023-04-18T05:24:56.299Z,95164.00
2023-04-18T05:25:56.337Z,95164.00
2023-04-18T05:26:56.414Z,95168.00
2023-04-18T05:27:56.454Z,95166.00
2023-04-18T05:28:56.530Z,95164.00
2023-04-18T05:29:56.588Z,95166.00
2023-04-18T05:30:56.691Z,95166.00
2023-04-18T05:31:56.678Z,95168.00
2023-04-18T05:32:56.745Z,95166.00
2023-04-18T05:33:56.881Z,95166.00
2023-04-18T05:34:56.849Z,95164.00
2023-04-18T05:35:56.935Z,95164.00
2023-04-18T05:36:56.966Z,95164.00
2023-04-18T05:37:57.523Z,95164.00
2023-04-18T05:38:57.108Z,95164.00
2023-04-18T05:39:59.939Z,95168.00
2023-04-18T05:40:57.147Z,95166.00
2023-04-18T05:41:57.152Z,95164.00
2023-04-18T05:42:57.089Z,95166.00
2023-04-18T05:44:04.878Z,95168.00
2023-04-18T05:44:58.149Z,95168.00
2023-04-18T05:47:16.118Z,95174.00
2023-04-18T05:48:15.900Z,95174.00
2023-04-18T05:49:15.894Z,95174.00
2023-04-18T05:50:15.873Z,95174.00
2023-04-18T05:51:15.909Z,95174.00
2023-04-18T05:52:15.908Z,95176.00
2023-04-18T05:53:16.175Z,95176.00
2023-04-18T05:54:16.211Z,95176.00
2023-04-18T05:55:15.936Z,95176.00
2023-04-18T05:56:15.928Z,95176.00
2023-04-18T05:57:16.057Z,95178.00
2023-04-18T05:58:16.122Z,95178.00
2023-04-18T05:59:16.617Z,95180.00
2023-04-18T06:00:16.189Z,95182.00
2023-04-18T06:01:16.295Z,95182.00
2023-04-18T06:02:17.411Z,95182.00
2023-04-18T06:03:16.552Z,95182.00
2023-04-18T06:04:17.242Z,95182.00
2023-04-18T06:05:16.707Z,95184.00
2023-04-18T06:06:16.457Z,95188.00
2023-04-18T06:07:16.516Z,95188.00
2023-04-18T06:08:16.559Z,95188.00
2023-04-18T06:09:16.630Z,95188.00
2023-04-18T06:10:16.688Z,95188.00
2023-04-18T06:11:16.782Z,95188.00
2023-04-18T06:12:16.799Z,95188.00
2023-04-18T06:13:16.909Z,95190.00
2023-04-18T06:14:16.996Z,95196.00
2023-04-18T06:15:17.045Z,95196.00
2023-04-18T06:16:17.084Z,95194.00
2023-04-18T06:17:17.154Z,95198.00
2023-04-18T06:18:17.230Z,95192.00
2023-04-18T06:19:17.596Z,95196.00
2023-04-18T06:20:17.284Z,95196.00
2023-04-18T06:21:17.371Z,95196.00
2023-04-18T06:22:17.432Z,95196.00
2023-04-18T06:23:17.459Z,95196.00
2023-04-18T06:24:17.547Z,95196.00
2023-04-18T06:25:17.552Z,95196.00
2023-04-18T06:26:17.600Z,95198.00
2023-04-18T06:27:30.213Z,95198.00
2023-04-18T06:28:18.645Z,95201.00
2023-04-18T06:29:17.640Z,95199.00
2023-04-18T06:30:17.687Z,95201.00
2023-04-18T06:31:17.622Z,95201.00
2023-04-18T06:32:17.609Z,95201.00
2023-04-18T06:33:17.572Z,95203.00
2023-04-18T06:34:17.603Z,95203.00
2023-04-18T06:35:17.667Z,95205.00
2023-04-18T06:36:17.588Z,95203.00
2023-04-18T06:37:17.607Z,95203.00
2023-04-18T06:38:17.538Z,95205.00
2023-04-18T06:39:17.633Z,95205.00
2023-04-18T06:40:17.571Z,95203.00
2023-04-18T06:41:17.545Z,95203.00
2023-04-18T06:42:17.703Z,95203.00
2023-04-18T06:43:17.543Z,95199.00
2023-04-18T06:44:17.597Z,95203.00
2023-04-18T06:45:17.497Z,95203.00
2023-04-18T06:46:17.536Z,95203.00
2023-04-18T06:47:17.519Z,95203.00
2023-04-18T06:48:17.518Z,95201.00
2023-04-18T06:49:17.550Z,95203.00
2023-04-18T06:50:17.520Z,95203.00
2023-04-18T06:51:17.559Z,95205.00
2023-04-18T06:52:17.552Z,95203.00
2023-04-18T06:53:17.636Z,95203.00
2023-04-18T06:54:17.653Z,95205.00
2023-04-18T06:55:17.658Z,95205.00
2023-04-18T06:56:17.645Z,95205.00
2023-04-18T06:57:17.656Z,95205.00
2023-04-18T06:58:17.699Z,95203.00
2023-04-18T06:59:18.130Z,95205.00
2023-04-18T07:00:17.698Z,95203.00
2023-04-18T07:01:18.543Z,95201.00
2023-04-18T07:02:17.720Z,95203.00
2023-04-18T07:03:17.883Z,95205.00
2023-04-18T07:04:17.903Z,95205.00
2023-04-18T07:05:18.609Z,95201.00
2023-04-18T07:06:17.701Z,95201.00
2023-04-18T07:07:17.731Z,95203.00
2023-04-18T07:08:17.779Z,95203.00
2023-04-18T07:09:17.884Z,95201.00
2023-04-18T07:10:17.925Z,95199.00
2023-04-18T07:11:17.922Z,95201.00
2023-04-18T07:12:17.943Z,95201.00
2023-04-18T07:13:18.029Z,95199.00
2023-04-18T07:14:18.038Z,95205.00
2023-04-18T07:15:18.213Z,95199.00
2023-04-18T07:16:18.130Z,95205.00
2023-04-18T07:17:18.241Z,95203.00
2023-04-18T07:18:30.271Z,95203.00
2023-04-18T07:19:19.254Z,95203.00
2023-04-18T07:20:18.227Z,95201.00
2023-04-18T07:21:18.214Z,95201.00
2023-04-18T07:22:18.185Z,95196.00
2023-04-18T07:23:18.212Z,95198.00
2023-04-18T07:24:18.203Z,95199.00
2023-04-18T07:25:18.169Z,95198.00
2023-04-18T07:26:18.176Z,95199.00
2023-04-18T07:27:18.211Z,95199.00
2023-04-18T07:28:18.276Z,95201.00
2023-04-18T07:29:18.397Z,95198.00
2023-04-18T07:30:18.360Z,95201.00
2023-04-18T07:31:18.744Z,95201.00
2023-04-18T07:32:18.628Z,95203.00
2023-04-18T07:33:18.601Z,95201.00
2023-04-18T07:34:18.635Z,95203.00
2023-04-18T07:35:18.693Z,95205.00
2023-04-18T07:36:18.756Z,95205.00
2023-04-18T07:37:18.804Z,95205.00
2023-04-18T07:38:18.853Z,95207.00
2023-04-18T07:39:19.155Z,95211.00
2023-04-18T07:40:18.999Z,95211.00
2023-04-18T07:41:19.031Z,95207.00
2023-04-18T07:42:19.033Z,95207.00
2023-04-18T07:43:20.805Z,95205.00
2023-04-18T07:44:19.094Z,95205.00
2023-04-18T07:45:19.092Z,95203.00
2023-04-18T07:46:19.150Z,95207.00
2023-04-18T07:47:22.340Z,95207.00
2023-04-18T07:48:19.118Z,95205.00
2023-04-18T07:49:19.104Z,95207.00
2023-04-18T07:50:19.133Z,95205.00
2023-04-18T07:51:19.139Z,95203.00
2023-04-18T07:52:19.134Z,95207.00
2023-04-18T07:53:19.082Z,95203.00
2023-04-18T07:54:19.082Z,95205.00
2023-04-18T07:55:19.238Z,95207.00
2023-04-18T07:56:19.063Z,95205.00
2023-04-18T07:57:19.069Z,95203.00
2023-04-18T07:58:19.032Z,95203.00
2023-04-18T07:59:19.094Z,95203.00
2023-04-18T08:00:19.084Z,95203.00
2023-04-18T08:01:19.009Z,95203.00
2023-04-18T08:02:19.193Z,95201.00
2023-04-18T08:03:19.398Z,95198.00
2023-04-18T08:04:19.198Z,95201.00
2023-04-18T08:05:19.164Z,95199.00
2023-04-18T08:06:18.982Z,95199.00
2023-04-18T08:07:18.979Z,95198.00
2023-04-18T08:08:18.952Z,95198.00
2023-04-18T08:09:18.977Z,95198.00
2023-04-18T08:10:18.989Z,95198.00
2023-04-18T08:11:18.985Z,95199.00
2023-04-18T08:12:19.121Z,95198.00
2023-04-18T08:13:18.968Z,95198.00
2023-04-18T08:14:19.082Z,95196.00
2023-04-18T08:15:18.946Z,95198.00
2023-04-18T08:16:19.000Z,95192.00
2023-04-18T08:17:18.964Z,95192.00
2023-04-18T08:18:18.923Z,95194.00
2023-04-18T08:19:18.958Z,95194.00
2023-04-18T08:20:18.921Z,95192.00
2023-04-18T08:21:18.931Z,95194.00
2023-04-18T08:22:18.915Z,95192.00
2023-04-18T08:23:18.896Z,95188.00
2023-04-18T08:24:18.888Z,95190.00
2023-04-18T08:25:19.209Z,95190.00
2023-04-18T08:26:18.853Z,95190.00
2023-04-18T08:27:18.868Z,95188.00
2023-04-18T08:28:18.869Z,95186.00
2023-04-18T08:29:18.842Z,95186.00
2023-04-18T08:30:18.837Z,95186.00
2023-04-18T08:31:18.829Z,95184.00
2023-04-18T08:32:18.856Z,95182.00
2023-04-18T08:33:18.877Z,95182.00
2023-04-18T08:34:18.823Z,95182.00
2023-04-18T08:35:18.826Z,95178.00
2023-04-18T08:36:18.852Z,95176.00
2023-04-18T08:37:18.879Z,95178.00
2023-04-18T08:38:18.889Z,95178.00
2023-04-18T08:39:19.002Z,95176.00
2023-04-18T08:40:19.737Z,95180.00
2023-04-18T08:41:19.062Z,95180.00
2023-04-18T08:42:19.094Z,95182.00
2023-04-18T08:43:19.153Z,95178.00
2023-04-18T08:44:19.178Z,95180.00
2023-04-18T08:45:19.678Z,95184.00
2023-04-18T08:46:19.296Z,95182.00
2023-04-18T08:47:19.327Z,95182.00
2023-04-18T08:48:19.343Z,95182.00
2023-04-18T08:49:19.392Z,95182.00
2023-04-18T08:50:19.713Z,95186.00
2023-04-18T08:51:19.876Z,95188.00
2023-04-18T08:52:19.519Z,95184.00
2023-04-18T08:53:19.598Z,95184.00
2023-04-18T08:54:19.610Z,95188.00
2023-04-18T08:55:19.636Z,95184.00
2023-04-18T08:56:19.685Z,95186.00
2023-04-18T08:57:19.727Z,95188.00
2023-04-18T08:58:19.758Z,95188.00
2023-04-18T08:59:19.753Z,95184.00
2023-04-18T09:00:20.223Z,95190.00
2023-04-18T09:01:19.807Z,95190.00
2023-04-18T09:02:19.845Z,95188.00
2023-04-18T09:03:19.897Z,95184.00
2023-04-18T09:04:19.860Z,95184.00
2023-04-18T09:05:20.191Z,95186.00
2023-04-18T09:06:19.911Z,95186.00
2023-04-18T09:07:19.978Z,95186.00
2023-04-18T09:08:20.004Z,95184.00
2023-04-18T09:09:20.087Z,95184.00
2023-04-18T09:10:20.158Z,95184.00
2023-04-18T09:11:20.210Z,95182.00
2023-04-18T09:12:21.254Z,95184.00
2023-04-18T09:13:20.313Z,95182.00
2023-04-18T09:14:20.377Z,95184.00
2023-04-18T09:15:20.456Z,95182.00
2023-04-18T09:16:20.521Z,95182.00
2023-04-18T09:17:20.504Z,95178.00
2023-04-18T09:18:20.610Z,95180.00
2023-04-18T09:19:20.677Z,95178.00
2023-04-18T09:20:20.662Z,95180.00
2023-04-18T09:21:20.710Z,95180.00
2023-04-18T09:22:20.802Z,95176.00
2023-04-18T09:23:20.867Z,95176.00
2023-04-18T09:24:21.013Z,95172.00
2023-04-18T09:25:20.950Z,95172.00
2023-04-18T09:26:20.959Z,95176.00
2023-04-18T09:27:21.018Z,95164.00
2023-04-18T09:28:21.163Z,95170.00
2023-04-18T09:29:21.074Z,95174.00
2023-04-18T09:30:21.150Z,95174.00
2023-04-18T09:31:21.225Z,95168.00
2023-04-18T09:32:21.213Z,95172.00
2023-04-18T09:33:21.226Z,95168.00
2023-04-18T09:34:21.224Z,95166.00
2023-04-18T09:35:21.707Z,95168.00
2023-04-18T09:36:21.361Z,95164.00
2023-04-18T09:37:21.346Z,95162.00
2023-04-18T09:38:21.339Z,95158.00
2023-04-18T09:39:21.626Z,95160.00
2023-04-18T09:40:21.598Z,95158.00
2023-04-18T09:41:21.731Z,95158.00
2023-04-18T09:42:21.605Z,95158.00
2023-04-18T09:43:21.522Z,95158.00
2023-04-18T09:44:21.554Z,95160.00
2023-04-18T09:45:21.716Z,95156.00
2023-04-18T09:46:21.726Z,95155.00
2023-04-18T09:47:21.679Z,95156.00
2023-04-18T09:48:21.704Z,95151.00
2023-04-18T09:49:21.742Z,95155.00
2023-04-18T09:50:21.761Z,95156.00
2023-04-18T09:51:21.817Z,95155.00
2023-04-18T09:52:21.856Z,95156.00
2023-04-18T09:53:21.931Z,95156.00
2023-04-18T09:54:21.898Z,95155.00
2023-04-18T09:55:22.201Z,95153.00
2023-04-18T09:56:21.988Z,95156.00
2023-04-18T09:57:22.015Z,95153.00
2023-04-18T09:58:21.995Z,95151.00
2023-04-18T09:59:22.074Z,95156.00
2023-04-18T10:00:22.138Z,95156.00
2023-04-18T10:01:22.152Z,95156.00
2023-04-18T10:02:22.284Z,95153.00
2023-04-18T10:03:22.324Z,95149.00
2023-04-18T10:04:22.284Z,95149.00
2023-04-18T10:05:22.341Z,95151.00
2023-04-18T10:06:22.365Z,95147.00
2023-04-18T10:07:22.432Z,95147.00
2023-04-18T10:08:22.435Z,95149.00
2023-04-18T10:09:22.518Z,95145.00
2023-04-18T10:10:22.726Z,95135.00
2023-04-18T10:11:22.669Z,95135.00
2023-04-18T10:12:22.717Z,95133.00
2023-04-18T10:13:22.738Z,95129.00
2023-04-18T10:14:22.809Z,95131.00
2023-04-18T10:15:23.205Z,95131.00
2023-04-18T10:16:22.992Z,95127.00
2023-04-18T10:17:23.001Z,95131.00
2023-04-18T10:18:23.217Z,95125.00
2023-04-18T10:19:23.153Z,95127.00
2023-04-18T10:20:23.364Z,95125.00
2023-04-18T10:21:23.297Z,95125.00
2023-04-18T10:22:23.353Z,95129.00
2023-04-18T10:23:23.463Z,95125.00
2023-04-18T10:24:23.475Z,95129.00
2023-04-18T10:25:23.743Z,95123.00
2023-04-18T10:26:23.438Z,95115.00
2023-04-18T10:27:23.498Z,95119.00
2023-04-18T10:28:23.619Z,95115.00
2023-04-18T10:29:23.666Z,95115.00
2023-04-18T10:30:23.727Z,95113.00
2023-04-18T10:31:24.292Z,95111.00
2023-04-18T10:32:23.861Z,95113.00
2023-04-18T10:33:30.386Z,95113.00
2023-04-18T10:34:24.816Z,95115.00
2023-04-18T10:35:24.275Z,95113.00
2023-04-18T10:36:23.823Z,95105.00
2023-04-18T10:37:23.786Z,95107.00
2023-04-18T10:38:23.786Z,95105.00
2023-04-18T10:39:23.806Z,95105.00
2023-04-18T10:40:23.807Z,95103.00
2023-04-18T10:41:24.241Z,95103.00
2023-04-18T10:42:23.815Z,95103.00
2023-04-18T10:43:23.808Z,95103.00
2023-04-18T10:44:24.166Z,95103.00
2023-04-18T10:45:23.751Z,95101.00
2023-04-18T10:46:31.634Z,95103.00
2023-04-18T10:47:24.952Z,95099.00
2023-04-18T10:48:23.880Z,95098.00
2023-04-18T10:49:26.372Z,95094.00
2023-04-18T10:50:23.777Z,95092.00
2023-04-18T10:51:23.734Z,95098.00
2023-04-18T10:52:23.682Z,95094.00
2023-04-18T10:53:23.709Z,95094.00
2023-04-18T10:54:23.656Z,95098.00
2023-04-18T10:55:23.713Z,95094.00
2023-04-18T10:56:24.228Z,95092.00
2023-04-18T10:57:23.666Z,95092.00
2023-04-18T10:58:23.679Z,95088.00
2023-04-18T10:59:23.767Z,95086.00
2023-04-18T11:00:23.671Z,95090.00
2023-04-18T11:01:23.742Z,95084.00
2023-04-18T11:02:23.716Z,95086.00
2023-04-18T11:03:23.695Z,95086.00
2023-04-18T11:04:23.657Z,95082.00
2023-04-18T11:05:23.598Z,95088.00
2023-04-18T11:06:23.743Z,95086.00
2023-04-18T11:07:23.596Z,95082.00
2023-04-18T11:08:23.549Z,95082.00
2023-04-18T11:09:23.594Z,95082.00
2023-04-18T11:10:23.572Z,95076.00
2023-04-18T11:11:23.736Z,95078.00
2023-04-18T11:12:23.550Z,95076.00
2023-04-18T11:13:23.546Z,95072.00
2023-04-18T11:14:23.544Z,95078.00
2023-04-18T11:15:23.598Z,95072.00
2023-04-18T11:16:23.602Z,95076.00
2023-04-18T11:17:23.587Z,95074.00
2023-04-18T11:18:23.475Z,95072.00
2023-04-18T11:19:23.547Z,95072.00
2023-04-18T11:20:23.519Z,95070.00
2023-04-18T11:21:23.473Z,95070.00
2023-04-18T11:22:23.474Z,95062.00
2023-04-18T11:23:23.487Z,95064.00
2023-04-18T11:24:23.464Z,95062.00
2023-04-18T11:25:23.466Z,95068.00
2023-04-18T11:26:23.473Z,95058.00
2023-04-18T11:27:23.446Z,95062.00
2023-04-18T11:28:23.422Z,95066.00
2023-04-18T11:29:23.477Z,95062.00
2023-04-18T11:30:23.426Z,95062.00
2023-04-18T11:31:23.785Z,95064.00
2023-04-18T11:32:23.628Z,95064.00
2023-04-18T11:33:23.435Z,95064.00
2023-04-18T11:34:23.421Z,95060.00
2023-04-18T11:35:23.436Z,95066.00
2023-04-18T11:36:23.784Z,95066.00
2023-04-18T11:37:23.376Z,95064.00
2023-04-18T11:38:24.330Z,95064.00
2023-04-18T11:39:23.434Z,95062.00
2023-04-18T11:40:23.397Z,95064.00
2023-04-18T11:41:23.769Z,95062.00
2023-04-18T11:42:23.312Z,95062.00
2023-04-18T11:43:23.365Z,95058.00
2023-04-18T11:44:23.330Z,95060.00
2023-04-18T11:45:23.296Z,95056.00
2023-04-18T11:46:23.384Z,95052.00